Time;durP1;ratioP1;P1;durP2;ratioP2;P2;SDS_P1;SDS_P2;PMS_P1;PMS_P2;Temp;Humidity;BMP_temperature;BMP_pressure;BME280_temperature;BME280_humidity;BME280_pressure;Samples;Min_cycle;Max_cycle;Signal;HPM_P1;HPM_P2
2024/01/09 00:02:06;;;;;;;11.85;7.63;;;-6.40;1.00;;;;;;5090724;28;20726;-78
2024/01/09 00:04:35;;;;;;;11.75;8.50;;;-6.40;1.00;;;;;;5113732;27;20241;-75
2024/01/09 00:07:02;;;;;;;10.18;6.32;;;-6.40;1.00;;;;;;5113547;28;20237;-77
2024/01/09 00:09:29;;;;;;;8.48;6.55;;;-6.50;1.00;;;;;;5107753;28;20285;-80
2024/01/09 00:11:57;;;;;;;10.75;7.43;;;-6.50;1.00;;;;;;5116983;28;21128;-78
2024/01/09 00:14:24;;;;;;;11.27;7.07;;;-6.50;1.00;;;;;;5114760;27;20309;-75
2024/01/09 00:16:53;;;;;;;8.68;6.88;;;-6.50;1.00;;;;;;5116184;27;20235;-78
2024/01/09 00:19:24;;;;;;;9.25;6.72;;;-6.40;1.00;;;;;;5097101;28;21018;-77
2024/01/09 00:21:52;;;;;;;8.20;6.45;;;-6.40;1.00;;;;;;5107273;28;21097;-77
2024/01/09 00:24:19;;;;;;;12.23;7.75;;;-6.50;1.00;;;;;;5112812;27;20239;-78
2024/01/09 00:26:46;;;;;;;8.45;6.43;;;-6.50;1.00;;;;;;5114038;28;20231;-78
2024/01/09 00:29:14;;;;;;;7.80;6.70;;;-6.50;1.00;;;;;;5113760;28;21033;-78
2024/01/09 00:31:41;;;;;;;10.27;7.03;;;-6.50;1.00;;;;;;5113495;27;21285;-76
2024/01/09 00:34:12;;;;;;;10.65;8.18;;;-6.50;1.00;;;;;;5114821;28;20235;-78
2024/01/09 00:36:43;;;;;;;10.57;7.22;;;-6.50;1.00;;;;;;5104818;28;20235;-78
2024/01/09 00:39:10;;;;;;;10.63;7.00;;;-6.50;1.00;;;;;;5113054;27;20238;-75
2024/01/09 00:41:37;;;;;;;8.88;6.93;;;-6.50;1.00;;;;;;5111042;28;20240;-78
2024/01/09 00:44:04;;;;;;;9.20;7.22;;;-6.50;1.00;;;;;;5114846;28;20248;-78
2024/01/09 00:46:31;;;;;;;10.50;6.47;;;-6.60;1.00;;;;;;5112173;28;20734;-78
2024/01/09 00:48:58;;;;;;;10.00;7.60;;;-6.60;1.00;;;;;;5113193;28;20239;-78
2024/01/09 00:51:27;;;;;;;13.70;7.85;;;-6.60;1.00;;;;;;5111894;28;20249;-74
2024/01/09 00:53:55;;;;;;;10.73;7.90;;;-6.60;1.00;;;;;;5113851;28;20235;-77
2024/01/09 00:56:22;;;;;;;11.10;8.30;;;-6.60;1.00;;;;;;5109515;28;20232;-76
2024/01/09 00:58:49;;;;;;;11.68;7.25;;;-6.70;1.00;;;;;;5111606;28;20730;-75
2024/01/09 01:01:16;;;;;;;9.93;7.22;;;-6.70;1.00;;;;;;5114205;28;20263;-75
2024/01/09 01:03:45;;;;;;;12.95;7.78;;;-6.70;1.00;;;;;;5111969;28;20305;-76
2024/01/09 01:06:12;;;;;;;12.05;8.57;;;-6.70;1.00;;;;;;5113013;28;20240;-75
2024/01/09 01:08:40;;;;;;;11.65;7.43;;;-6.70;1.00;;;;;;5102609;28;20240;-76
2024/01/09 01:11:08;;;;;;;10.35;6.80;;;-6.80;1.00;;;;;;5109851;28;20359;-76
2024/01/09 01:13:35;;;;;;;7.63;6.60;;;-6.80;1.00;;;;;;5111441;28;20277;-75
2024/01/09 01:16:02;;;;;;;12.07;7.05;;;-6.90;1.00;;;;;;5111944;27;20324;-76
2024/01/09 01:18:29;;;;;;;11.98;8.00;;;-6.90;1.00;;;;;;5107342;28;20242;-77
2024/01/09 01:20:58;;;;;;;9.02;6.30;;;-6.90;1.00;;;;;;5109575;28;20292;-76
2024/01/09 01:23:25;;;;;;;13.55;7.75;;;-6.90;1.00;;;;;;5110593;28;20241;-76
2024/01/09 01:25:53;;;;;;;12.93;7.38;;;-6.90;1.00;;;;;;5113213;28;20301;-77
2024/01/09 01:28:20;;;;;;;8.48;7.25;;;-7.00;1.00;;;;;;5111202;28;20746;-77
2024/01/09 01:30:47;;;;;;;10.27;7.80;;;-7.00;1.00;;;;;;5109227;27;20234;-78
2024/01/09 01:33:13;;;;;;;13.50;8.00;;;-7.10;1.00;;;;;;5109256;27;20434;-76
2024/01/09 01:35:40;;;;;;;10.77;7.20;;;-7.10;1.00;;;;;;5109789;28;20235;-75
2024/01/09 01:38:07;;;;;;;9.50;7.45;;;-7.10;1.00;;;;;;5103669;28;20224;-75
2024/01/09 01:40:34;;;;;;;12.88;8.23;;;-7.20;1.00;;;;;;5104534;28;20239;-74
2024/01/09 01:43:05;;;;;;;9.05;7.30;;;-7.20;1.00;;;;;;5112456;27;20269;-77
2024/01/09 01:45:32;;;;;;;12.75;8.60;;;-7.20;1.00;;;;;;5112219;28;22369;-77
2024/01/09 01:48:00;;;;;;;9.75;7.78;;;-7.20;1.00;;;;;;5110252;28;20337;-77
2024/01/09 01:50:30;;;;;;;9.82;8.15;;;-7.30;1.00;;;;;;5110834;27;20235;-77
2024/01/09 01:52:59;;;;;;;11.27;7.85;;;-7.30;1.00;;;;;;5113142;28;20296;-75
2024/01/09 01:55:27;;;;;;;12.25;8.38;;;-7.20;1.00;;;;;;5115062;28;20301;-77
2024/01/09 01:57:57;;;;;;;12.18;7.70;;;-7.30;1.00;;;;;;5117553;27;20240;-74
2024/01/09 02:00:27;;;;;;;11.38;8.02;;;-7.30;1.00;;;;;;5104444;27;20365;-76
2024/01/09 02:02:55;;;;;;;14.10;8.05;;;-7.30;1.00;;;;;;5115305;28;20703;-74
2024/01/09 02:05:25;;;;;;;14.15;8.50;;;-7.30;1.00;;;;;;5114544;27;20240;-74
2024/01/09 02:07:54;;;;;;;10.50;7.30;;;-7.30;1.00;;;;;;5109722;27;20232;-72
2024/01/09 02:10:21;;;;;;;11.00;7.63;;;-7.30;1.00;;;;;;5113070;28;20369;-75
2024/01/09 02:12:48;;;;;;;12.80;9.18;;;-7.40;1.00;;;;;;5115516;28;20338;-74
2024/01/09 02:15:15;;;;;;;12.38;8.27;;;-7.40;1.00;;;;;;5113227;28;20227;-74
2024/01/09 02:17:44;;;;;;;14.48;8.23;;;-7.50;1.00;;;;;;5115157;28;20910;-77
2024/01/09 02:20:12;;;;;;;10.77;7.97;;;-7.40;1.00;;;;;;5112360;28;20302;-75
2024/01/09 02:22:39;;;;;;;10.55;8.80;;;-7.50;1.00;;;;;;5113950;28;20322;-74
2024/01/09 02:25:08;;;;;;;8.63;7.22;;;-7.50;1.00;;;;;;5112977;28;20242;-74
2024/01/09 02:27:45;;;;;;;10.02;8.18;;;-7.50;1.00;;;;;;5110768;28;20231;-73
2024/01/09 02:30:14;;;;;;;11.75;8.90;;;-7.60;1.00;;;;;;5110145;28;20775;-74
2024/01/09 02:32:41;;;;;;;12.20;8.70;;;-7.60;1.00;;;;;;5110645;28;21432;-73
2024/01/09 02:35:09;;;;;;;11.77;7.90;;;-7.50;1.00;;;;;;5110714;28;20266;-74
2024/01/09 02:37:37;;;;;;;10.65;8.07;;;-7.50;1.00;;;;;;5112026;27;20292;-74
2024/01/09 02:40:07;;;;;;;13.00;8.75;;;-7.50;1.00;;;;;;5113536;28;20314;-75
2024/01/09 02:42:34;;;;;;;9.82;7.63;;;-7.50;1.00;;;;;;5113460;28;20261;-75
2024/01/09 02:45:01;;;;;;;12.48;8.70;;;-7.50;1.00;;;;;;5115293;27;20258;-74
2024/01/09 02:47:29;;;;;;;17.27;8.52;;;-7.50;1.00;;;;;;5113383;28;20843;-74
2024/01/09 02:49:56;;;;;;;10.43;7.38;;;-7.50;1.00;;;;;;5113613;28;20349;-73
2024/01/09 02:52:23;;;;;;;12.35;8.95;;;-7.50;1.00;;;;;;5112656;28;20235;-74
2024/01/09 02:54:50;;;;;;;9.55;7.30;;;-7.50;1.00;;;;;;5114500;28;20266;-73
2024/01/09 02:57:17;;;;;;;11.15;7.50;;;-7.50;1.00;;;;;;5110539;28;20250;-74
2024/01/09 02:59:44;;;;;;;11.45;7.85;;;-7.60;1.00;;;;;;5113878;28;20242;-73
2024/01/09 03:02:11;;;;;;;12.35;8.18;;;-7.60;1.00;;;;;;5112184;27;20286;-74
2024/01/09 03:04:41;;;;;;;11.43;8.43;;;-7.60;1.00;;;;;;5114328;28;20291;-74
2024/01/09 03:07:09;;;;;;;11.13;7.70;;;-7.70;1.00;;;;;;5092082;28;20294;-74
2024/01/09 03:09:37;;;;;;;13.57;7.90;;;-7.70;1.00;;;;;;5106623;28;20240;-76
2024/01/09 03:12:04;;;;;;;10.85;7.75;;;-7.70;1.00;;;;;;5111708;28;20236;-77
2024/01/09 03:14:31;;;;;;;15.40;9.13;;;-7.70;1.00;;;;;;5114553;27;20250;-75
2024/01/09 03:16:59;;;;;;;11.88;8.27;;;-7.80;1.00;;;;;;5111978;27;20246;-76
2024/01/09 03:19:25;;;;;;;14.82;8.95;;;-7.70;1.00;;;;;;5112690;28;21016;-75
2024/01/09 03:21:55;;;;;;;14.05;8.80;;;-7.70;1.00;;;;;;5112481;28;20231;-76
2024/01/09 03:24:22;;;;;;;14.43;9.40;;;-7.80;1.00;;;;;;5111580;28;20263;-75
2024/01/09 03:26:49;;;;;;;14.43;9.15;;;-7.70;1.00;;;;;;5114201;28;20283;-76
2024/01/09 03:29:17;;;;;;;13.23;8.95;;;-7.70;1.00;;;;;;5114736;28;20289;-76
2024/01/09 03:31:44;;;;;;;11.20;8.70;;;-7.80;1.00;;;;;;5111711;28;20246;-76
2024/01/09 03:34:11;;;;;;;13.20;9.10;;;-7.80;1.00;;;;;;5114451;28;20745;-77
2024/01/09 03:36:41;;;;;;;11.20;8.93;;;-7.90;1.00;;;;;;5112241;28;20242;-76
2024/01/09 03:39:11;;;;;;;15.25;8.63;;;-7.90;1.00;;;;;;5114585;28;20326;-73
2024/01/09 03:41:38;;;;;;;16.02;9.48;;;-7.90;1.00;;;;;;5111291;28;20236;-75
2024/01/09 03:44:05;;;;;;;14.90;8.27;;;-7.90;1.00;;;;;;5112900;28;20262;-75
2024/01/09 03:46:32;;;;;;;17.83;10.57;;;-7.90;1.00;;;;;;5111374;28;20227;-76
2024/01/09 03:48:59;;;;;;;15.77;9.50;;;-7.90;1.00;;;;;;5112546;28;20245;-75
2024/01/09 03:51:26;;;;;;;13.35;9.07;;;-7.90;1.00;;;;;;5111004;28;20227;-76
2024/01/09 03:53:54;;;;;;;14.88;9.80;;;-8.00;1.00;;;;;;5110323;28;20244;-77
2024/01/09 03:56:24;;;;;;;13.23;9.35;;;-8.00;1.00;;;;;;5113135;28;20327;-77
2024/01/09 03:58:51;;;;;;;16.55;10.10;;;-8.00;1.00;;;;;;5109518;28;20231;-76
2024/01/09 04:01:18;;;;;;;13.23;8.32;;;-8.00;1.00;;;;;;5111665;28;20259;-76
2024/01/09 04:03:45;;;;;;;16.13;9.27;;;-8.00;1.00;;;;;;5113425;28;20242;-76
2024/01/09 04:06:12;;;;;;;13.82;8.70;;;-8.10;1.00;;;;;;5095496;28;20239;-77
2024/01/09 04:08:41;;;;;;;16.02;9.68;;;-8.10;1.00;;;;;;5110694;28;20292;-75
2024/01/09 04:11:08;;;;;;;15.77;10.35;;;-8.10;1.00;;;;;;5112943;28;20231;-77
2024/01/09 04:13:36;;;;;;;15.70;9.88;;;-8.20;1.00;;;;;;5115293;28;20235;-76
2024/01/09 04:16:03;;;;;;;16.92;9.40;;;-8.20;1.00;;;;;;5110757;28;20235;-76
2024/01/09 04:18:30;;;;;;;13.15;9.00;;;-8.20;1.00;;;;;;5111570;28;20235;-77
2024/01/09 04:20:57;;;;;;;16.40;8.95;;;-8.20;1.00;;;;;;5111595;28;20296;-74
2024/01/09 04:23:24;;;;;;;13.85;10.55;;;-8.20;1.00;;;;;;5110994;28;20691;-74
2024/01/09 04:25:51;;;;;;;14.35;9.82;;;-8.20;1.00;;;;;;5109847;28;20254;-75
2024/01/09 04:28:18;;;;;;;13.98;9.10;;;-8.20;1.00;;;;;;5114359;27;20275;-74
2024/01/09 04:30:46;;;;;;;12.35;8.77;;;-8.20;1.00;;;;;;5111127;28;20350;-75
2024/01/09 04:33:13;;;;;;;13.20;11.18;;;-8.20;1.00;;;;;;5109661;28;20239;-73
2024/01/09 04:35:40;;;;;;;17.60;10.50;;;-8.20;1.00;;;;;;5109443;28;20239;-75
2024/01/09 04:38:09;;;;;;;13.77;9.48;;;-8.20;1.00;;;;;;5105768;28;21156;-72
2024/01/09 04:40:37;;;;;;;13.30;9.68;;;-8.10;1.00;;;;;;5110433;28;20768;-72
2024/01/09 04:43:06;;;;;;;14.98;10.95;;;-7.90;1.00;;;;;;5112599;28;21581;-75
2024/01/09 04:45:33;;;;;;;14.02;9.82;;;-7.80;1.00;;;;;;5094473;27;20243;-75
2024/01/09 04:48:02;;;;;;;15.98;9.73;;;-7.80;1.00;;;;;;5112944;28;20805;-73
2024/01/09 04:50:29;;;;;;;16.60;9.95;;;-7.90;1.00;;;;;;5110716;28;20320;-74
2024/01/09 04:52:56;;;;;;;14.15;10.30;;;-7.90;1.00;;;;;;5109033;28;20811;-75
2024/01/09 04:55:22;;;;;;;16.17;9.70;;;-7.80;1.00;;;;;;5112581;27;21157;-73
2024/01/09 04:57:49;;;;;;;17.42;11.00;;;-7.70;1.00;;;;;;5110409;28;20328;-73
2024/01/09 05:00:19;;;;;;;15.48;10.38;;;-7.70;1.00;;;;;;5112711;28;20318;-73
2024/01/09 05:02:46;;;;;;;18.08;10.98;;;-7.70;1.00;;;;;;5106662;27;20251;-73
2024/01/09 05:05:15;;;;;;;16.90;10.13;;;-7.80;1.00;;;;;;5105600;27;20242;-75
2024/01/09 05:07:43;;;;;;;16.35;10.23;;;-7.90;1.00;;;;;;5110102;27;20265;-75
2024/01/09 05:10:10;;;;;;;15.32;10.02;;;-8.00;1.00;;;;;;5107284;27;20301;-76
2024/01/09 05:12:37;;;;;;;19.42;11.32;;;-8.00;1.00;;;;;;5108373;28;21040;-76
2024/01/09 05:15:04;;;;;;;20.25;12.00;;;-8.10;1.00;;;;;;5108283;28;20243;-74
2024/01/09 05:17:31;;;;;;;18.80;10.68;;;-8.10;1.00;;;;;;5109932;27;20266;-74
2024/01/09 05:19:58;;;;;;;17.40;12.70;;;-8.10;1.00;;;;;;5111059;27;20710;-74
2024/01/09 05:22:27;;;;;;;16.05;10.52;;;-8.10;1.00;;;;;;5104296;28;20265;-74
2024/01/09 05:24:54;;;;;;;13.77;9.93;;;-8.20;1.00;;;;;;5106028;27;20243;-73
2024/01/09 05:27:21;;;;;;;17.88;12.18;;;-8.20;1.00;;;;;;5111727;27;20241;-75
2024/01/09 05:29:47;;;;;;;13.77;11.18;;;-8.20;1.00;;;;;;5112420;27;20295;-73
2024/01/09 05:32:14;;;;;;;15.80;11.95;;;-8.20;1.00;;;;;;5108895;28;20267;-78
2024/01/09 05:34:41;;;;;;;18.25;11.60;;;-8.30;1.00;;;;;;5114161;27;20231;-79
2024/01/09 05:37:08;;;;;;;14.35;11.15;;;-8.30;1.00;;;;;;5114250;27;20392;-78
2024/01/09 05:39:37;;;;;;;19.73;12.77;;;-8.20;1.00;;;;;;5114508;27;20264;-77
2024/01/09 05:42:04;;;;;;;18.02;10.77;;;-8.20;1.00;;;;;;5116752;27;20711;-77
2024/01/09 05:44:31;;;;;;;13.00;10.25;;;-8.30;1.00;;;;;;5112022;27;20240;-76
2024/01/09 05:46:59;;;;;;;18.05;11.07;;;-8.30;1.00;;;;;;5093033;28;20267;-79
2024/01/09 05:49:27;;;;;;;12.90;11.25;;;-8.30;1.00;;;;;;5111407;28;20287;-76
2024/01/09 05:51:54;;;;;;;16.20;11.38;;;-8.30;1.00;;;;;;5101375;27;20784;-75
2024/01/09 05:54:21;;;;;;;21.30;12.02;;;-8.30;1.00;;;;;;5107388;27;20273;-77
2024/01/09 05:56:50;;;;;;;15.98;10.75;;;-8.30;1.00;;;;;;5109678;27;20263;-75
2024/01/09 05:59:17;;;;;;;13.30;10.55;;;-8.30;1.00;;;;;;5109313;28;20263;-77
2024/01/09 06:01:44;;;;;;;20.30;13.05;;;-8.30;1.00;;;;;;5110998;28;20325;-78
2024/01/09 06:04:11;;;;;;;16.58;12.82;;;-8.30;1.00;;;;;;5112923;28;21031;-77
2024/01/09 06:06:38;;;;;;;17.95;12.00;;;-8.20;1.00;;;;;;5108855;27;20293;-78
2024/01/09 06:09:05;;;;;;;16.30;11.52;;;-8.20;1.00;;;;;;5108613;28;20322;-76
2024/01/09 06:11:32;;;;;;;17.23;11.68;;;-8.20;1.00;;;;;;5113331;27;20262;-74
2024/01/09 06:14:01;;;;;;;23.83;12.30;;;-8.20;1.00;;;;;;5112834;27;20300;-77
2024/01/09 06:16:28;;;;;;;23.17;12.93;;;-8.20;1.00;;;;;;5110501;28;20727;-78
2024/01/09 06:18:54;;;;;;;17.67;11.75;;;-8.20;1.00;;;;;;5115208;27;20265;-78
2024/01/09 06:21:21;;;;;;;16.58;11.15;;;-8.20;1.00;;;;;;5110220;28;20256;-78
2024/01/09 06:23:48;;;;;;;18.08;10.80;;;-8.20;1.00;;;;;;5117475;28;20243;-77
2024/01/09 06:26:15;;;;;;;16.40;10.27;;;-8.20;1.00;;;;;;5112579;28;20726;-78
2024/01/09 06:28:43;;;;;;;16.27;11.95;;;-8.20;1.00;;;;;;5112883;28;21180;-79
2024/01/09 06:31:11;;;;;;;19.08;11.70;;;-8.20;1.00;;;;;;5110504;28;20235;-77
2024/01/09 06:33:38;;;;;;;19.90;15.23;;;-8.20;1.00;;;;;;5115017;27;20232;-77
2024/01/09 06:36:06;;;;;;;19.02;12.85;;;-8.20;1.00;;;;;;5116516;28;21160;-78
2024/01/09 06:38:34;;;;;;;16.50;11.65;;;-8.20;1.00;;;;;;5113520;27;20235;-79
2024/01/09 06:41:01;;;;;;;15.57;11.38;;;-8.10;1.00;;;;;;5119543;28;20326;-79
2024/01/09 06:43:29;;;;;;;15.05;11.52;;;-8.10;1.00;;;;;;5119980;28;20235;-77
2024/01/09 06:45:58;;;;;;;17.67;13.00;;;-8.10;1.00;;;;;;5119677;28;20251;-79
2024/01/09 06:48:26;;;;;;;17.20;11.20;;;-8.10;1.00;;;;;;5119273;27;20236;-79
2024/01/09 06:50:54;;;;;;;17.50;12.82;;;-8.20;1.00;;;;;;5122993;27;20231;-77
2024/01/09 06:53:21;;;;;;;20.98;12.40;;;-8.20;1.00;;;;;;5102205;27;20231;-78
2024/01/09 06:55:48;;;;;;;18.20;12.00;;;-8.20;1.00;;;;;;5121191;27;20246;-79
2024/01/09 06:58:16;;;;;;;15.80;11.68;;;-8.20;1.00;;;;;;5116536;28;20231;-79
2024/01/09 07:00:44;;;;;;;19.27;12.45;;;-8.20;1.00;;;;;;5117350;28;20261;-77
2024/01/09 07:03:13;;;;;;;16.27;10.60;;;-8.20;1.00;;;;;;5120965;28;20235;-78
2024/01/09 07:05:41;;;;;;;21.77;12.93;;;-8.30;1.00;;;;;;5118706;27;20243;-79
2024/01/09 07:08:08;;;;;;;19.13;11.80;;;-8.30;1.00;;;;;;5118369;27;20243;-78
2024/01/09 07:10:35;;;;;;;18.38;11.93;;;-8.30;1.00;;;;;;5118993;28;20290;-78
2024/01/09 07:13:03;;;;;;;21.13;12.18;;;-8.30;1.00;;;;;;5117651;28;20243;-78
2024/01/09 07:15:30;;;;;;;15.75;11.52;;;-8.30;1.00;;;;;;5115134;27;20243;-78
2024/01/09 07:17:57;;;;;;;20.33;12.15;;;-8.30;1.00;;;;;;5117537;27;20812;-76
2024/01/09 07:20:25;;;;;;;16.90;12.18;;;-8.30;1.00;;;;;;5117737;28;20270;-79
2024/01/09 07:22:54;;;;;;;17.15;10.27;;;-8.30;1.00;;;;;;5121645;27;20276;-80
2024/01/09 07:25:21;;;;;;;18.25;12.90;;;-8.40;1.00;;;;;;5118964;27;20227;-78
2024/01/09 07:27:49;;;;;;;19.02;11.90;;;-8.30;1.00;;;;;;5115339;27;20239;-78
2024/01/09 07:30:17;;;;;;;20.60;10.70;;;-8.30;1.00;;;;;;5119030;27;21147;-78
2024/01/09 07:32:44;;;;;;;18.88;11.43;;;-8.30;1.00;;;;;;5117643;27;20243;-76
2024/01/09 07:35:11;;;;;;;15.18;11.38;;;-8.30;1.00;;;;;;5118489;27;20239;-78
2024/01/09 07:37:38;;;;;;;20.20;12.00;;;-8.30;1.00;;;;;;5116920;28;20378;-77
2024/01/09 07:40:07;;;;;;;15.63;11.18;;;-8.30;1.00;;;;;;5117064;27;20266;-76
2024/01/09 07:42:35;;;;;;;19.33;11.95;;;-8.30;1.00;;;;;;5115686;28;20235;-79
2024/01/09 07:45:02;;;;;;;19.70;13.25;;;-8.30;1.00;;;;;;5117843;27;20231;-77
2024/01/09 07:47:29;;;;;;;20.38;12.68;;;-8.20;1.00;;;;;;5116624;27;20334;-77
2024/01/09 07:49:56;;;;;;;36.92;22.10;;;-8.20;1.00;;;;;;5118569;27;20243;-79
2024/01/09 07:52:24;;;;;;;18.38;12.98;;;-8.20;1.00;;;;;;5116619;28;20235;-78
2024/01/09 07:54:50;;;;;;;17.20;11.38;;;-8.20;1.00;;;;;;5114013;28;20231;-75
2024/01/09 07:57:19;;;;;;;22.08;12.80;;;-8.20;1.00;;;;;;5116493;28;20303;-79
2024/01/09 07:59:46;;;;;;;19.35;13.50;;;-8.20;1.00;;;;;;5115107;28;20227;-79
2024/01/09 08:02:14;;;;;;;26.17;18.05;;;-8.10;1.00;;;;;;5115615;28;20277;-78
2024/01/09 08:04:41;;;;;;;17.67;13.32;;;-8.00;1.00;;;;;;5113296;28;20247;-79
2024/01/09 08:07:08;;;;;;;15.88;12.40;;;-8.00;1.00;;;;;;5087492;28;21644;-80
2024/01/09 08:09:35;;;;;;;22.02;13.20;;;-8.10;1.00;;;;;;5113874;28;20235;-81
2024/01/09 08:12:02;;;;;;;20.20;12.48;;;-8.00;1.00;;;;;;5118103;28;20231;-77
2024/01/09 08:14:31;;;;;;;19.67;14.00;;;-8.00;1.00;;;;;;5115505;28;20670;-78
2024/01/09 08:16:58;;;;;;;24.40;14.18;;;-7.90;1.00;;;;;;5117631;28;20333;-78
2024/01/09 08:19:25;;;;;;;18.05;13.02;;;-7.80;1.00;;;;;;5086038;28;20232;-78
2024/01/09 08:21:52;;;;;;;20.85;14.27;;;-7.80;1.00;;;;;;5116474;27;20231;-79
2024/01/09 08:24:22;;;;;;;25.52;15.63;;;-7.70;1.00;;;;;;5117028;28;20235;-78
2024/01/09 08:26:51;;;;;;;21.23;14.45;;;-7.50;1.00;;;;;;5113578;28;20836;-74
2024/01/09 08:29:18;;;;;;;22.88;15.98;;;-7.00;1.00;;;;;;5114789;28;21152;-77
2024/01/09 08:31:47;;;;;;;21.15;15.10;;;-6.40;1.00;;;;;;5117305;27;20243;-78
2024/01/09 08:34:14;;;;;;;24.45;15.57;;;-5.90;1.00;;;;;;5118431;28;20273;-72
2024/01/09 08:36:45;;;;;;;22.10;15.70;;;-5.50;1.00;;;;;;5114106;28;20319;-72
2024/01/09 08:39:13;;;;;;;17.95;14.45;;;-5.10;1.00;;;;;;5112113;28;20239;-72
2024/01/09 08:41:40;;;;;;;23.27;15.02;;;-5.00;1.00;;;;;;5085949;28;20341;-75
2024/01/09 08:44:07;;;;;;;23.30;16.08;;;-4.90;1.00;;;;;;5110697;28;20231;-73
2024/01/09 08:46:35;;;;;;;26.88;16.10;;;-5.00;1.00;;;;;;5111460;28;20317;-72
2024/01/09 08:49:05;;;;;;;35.55;15.40;;;-5.20;1.00;;;;;;5110918;28;20263;-72
2024/01/09 08:51:32;;;;;;;22.63;17.02;;;-5.40;1.00;;;;;;5109726;28;20338;-73
2024/01/09 08:53:59;;;;;;;23.35;15.45;;;-5.60;1.00;;;;;;5113366;28;21762;-71
2024/01/09 08:56:25;;;;;;;23.13;15.00;;;-5.90;1.00;;;;;;5112648;28;20235;-74
2024/01/09 08:58:53;;;;;;;23.45;15.90;;;-6.20;1.00;;;;;;5112458;28;20235;-72
2024/01/09 09:01:20;;;;;;;23.63;16.23;;;-6.30;1.00;;;;;;5112013;28;20293;-72
2024/01/09 09:03:48;;;;;;;27.38;15.30;;;-6.30;1.00;;;;;;5110197;28;20239;-77
2024/01/09 09:06:17;;;;;;;22.08;15.40;;;-6.40;1.00;;;;;;5116731;28;20239;-76
2024/01/09 09:08:44;;;;;;;34.08;16.92;;;-6.50;1.00;;;;;;5116189;28;21193;-78
2024/01/09 09:11:15;;;;;;;19.80;15.95;;;-6.50;1.00;;;;;;5118566;28;20298;-78
2024/01/09 09:13:42;;;;;;;25.65;17.42;;;-6.40;1.00;;;;;;5115124;27;20327;-69
2024/01/09 09:16:12;;;;;;;25.10;16.88;;;-6.30;1.00;;;;;;5113429;27;20330;-71
2024/01/09 09:18:39;;;;;;;27.23;16.30;;;-6.20;1.00;;;;;;5113076;28;20270;-77
2024/01/09 09:21:09;;;;;;;25.50;16.02;;;-6.00;1.00;;;;;;5114222;28;20247;-79
2024/01/09 09:23:39;;;;;;;21.35;15.38;;;-5.60;1.00;;;;;;5115412;28;20235;-78
2024/01/09 09:26:06;;;;;;;24.77;16.02;;;-5.20;1.00;;;;;;5113562;28;20257;-79
2024/01/09 09:28:33;;;;;;;25.83;17.00;;;-5.00;1.00;;;;;;5112945;28;20239;-76
2024/01/09 09:31:00;;;;;;;23.75;15.73;;;-4.70;1.00;;;;;;5116727;28;20244;-81
2024/01/09 09:33:32;;;;;;;21.65;15.50;;;-4.50;1.00;;;;;;5112368;28;20296;-78
2024/01/09 09:36:06;;;;;;;26.77;16.85;;;-4.20;1.00;;;;;;5115345;28;20286;-79
2024/01/09 09:38:34;;;;;;;25.08;16.40;;;-4.00;1.00;;;;;;5113953;28;20328;-78
2024/01/09 09:41:06;;;;;;;26.80;18.10;;;-4.00;1.00;;;;;;5112969;28;20223;-77
2024/01/09 09:43:35;;;;;;;22.30;15.35;;;-4.20;1.00;;;;;;5113596;28;21015;-78
2024/01/09 09:46:03;;;;;;;25.90;18.48;;;-4.40;1.00;;;;;;5115350;28;20242;-77
2024/01/09 09:48:32;;;;;;;25.48;16.50;;;-4.60;1.00;;;;;;5114444;28;20238;-79
2024/01/09 09:51:01;;;;;;;23.23;16.20;;;-4.50;1.00;;;;;;5114653;28;20280;-70
2024/01/09 09:53:31;;;;;;;23.88;17.23;;;-4.10;1.00;;;;;;5109898;28;20719;-71
2024/01/09 09:55:59;;;;;;;24.90;16.38;;;-3.90;1.00;;;;;;5110335;28;20228;-73
2024/01/09 09:58:29;;;;;;;27.50;17.45;;;-3.90;1.00;;;;;;5110896;28;20239;-79
2024/01/09 10:00:59;;;;;;;23.27;18.98;;;-3.80;1.00;;;;;;5109479;28;20236;-75
2024/01/09 10:03:31;;;;;;;25.90;15.93;;;-3.60;1.00;;;;;;5109162;28;20235;-72
2024/01/09 10:06:03;;;;;;;22.95;17.30;;;-3.30;1.00;;;;;;5109146;28;21070;-73
2024/01/09 10:08:33;;;;;;;34.17;19.40;;;-3.00;1.00;;;;;;5111165;28;20808;-71
2024/01/09 10:11:00;;;;;;;22.00;16.55;;;-2.60;1.00;;;;;;5111524;27;20895;-71
2024/01/09 10:13:28;;;;;;;26.80;18.83;;;-2.10;1.00;;;;;;5115057;28;20239;-71
2024/01/09 10:16:02;;;;;;;24.67;18.52;;;-1.60;1.00;;;;;;5113578;28;20737;-71
2024/01/09 10:18:30;;;;;;;26.90;16.20;;;-1.10;1.00;;;;;;5114374;28;20230;-72
2024/01/09 10:20:58;;;;;;;25.20;18.95;;;-1.10;1.00;;;;;;5105263;28;20244;-73
2024/01/09 10:23:26;;;;;;;23.08;17.48;;;-1.30;1.00;;;;;;5094895;28;20263;-79
2024/01/09 10:25:54;;;;;;;26.45;18.55;;;-1.30;1.00;;;;;;5093668;28;20240;-73
2024/01/09 10:28:21;;;;;;;27.65;19.00;;;-1.10;1.00;;;;;;5094636;28;20236;-72
2024/01/09 10:30:53;;;;;;;23.58;17.65;;;-0.80;1.00;;;;;;5092389;28;20727;-75
2024/01/09 10:33:22;;;;;;;29.02;18.23;;;-0.50;1.00;;;;;;5094358;28;20232;-72
2024/01/09 10:35:49;;;;;;;24.15;18.25;;;-0.30;1.00;;;;;;5093716;28;20323;-73
2024/01/09 10:38:24;;;;;;;34.78;18.80;;;-0.50;1.00;;;;;;5096483;28;21133;-72
2024/01/09 10:40:55;;;;;;;31.10;20.58;;;-0.90;1.00;;;;;;5094160;28;20232;-71
2024/01/09 10:43:26;;;;;;;23.73;18.58;;;-0.80;1.00;;;;;;5080686;28;20236;-72
2024/01/09 10:45:55;;;;;;;25.55;16.02;;;0.10;1.00;;;;;;5094186;28;20262;-73
2024/01/09 10:48:22;;;;;;;28.52;19.80;;;0.80;1.00;;;;;;5092870;28;20232;-71
2024/01/09 10:50:51;;;;;;;23.85;16.45;;;0.30;1.00;;;;;;5093667;28;20237;-71
2024/01/09 10:53:19;;;;;;;25.83;16.38;;;0.20;1.00;;;;;;5094831;28;20315;-73
2024/01/09 10:55:51;;;;;;;30.10;18.38;;;0.80;1.00;;;;;;5093588;28;20255;-71
2024/01/09 10:58:18;;;;;;;21.42;15.98;;;1.30;1.00;;;;;;5095611;28;20975;-72
2024/01/09 11:00:47;;;;;;;31.67;18.30;;;1.80;1.00;;;;;;5086721;28;20282;-72
2024/01/09 11:03:16;;;;;;;21.63;16.67;;;1.70;1.00;;;;;;5094152;28;20246;-71
2024/01/09 11:05:43;;;;;;;25.90;16.40;;;1.40;1.00;;;;;;5093099;28;20236;-72
2024/01/09 11:08:18;;;;;;;24.92;16.67;;;1.30;1.00;;;;;;5092888;28;20231;-75
2024/01/09 11:10:45;;;;;;;27.60;17.90;;;0.90;1.00;;;;;;5093233;28;20420;-81
2024/01/09 11:13:13;;;;;;;26.30;18.52;;;0.60;1.00;;;;;;5094476;28;20323;-79
2024/01/09 11:15:46;;;;;;;24.40;15.75;;;0.60;1.00;;;;;;5097595;28;20235;-78
2024/01/09 11:18:18;;;;;;;23.67;16.70;;;1.60;1.00;;;;;;5094077;28;20714;-72
2024/01/09 11:20:46;;;;;;;23.48;16.60;;;2.00;1.00;;;;;;5100943;28;20236;-72
2024/01/09 11:23:15;;;;;;;26.10;17.42;;;1.90;1.00;;;;;;5116888;28;20243;-76
2024/01/09 11:25:50;;;;;;;28.38;17.25;;;2.60;1.00;;;;;;5115492;28;20235;-78
2024/01/09 11:28:39;;;;;;;20.00;14.75;;;3.10;1.00;;;;;;5118200;28;20458;-80
2024/01/09 11:31:08;;;;;;;24.50;17.05;;;3.20;1.00;;;;;;5118172;28;20228;-76
2024/01/09 11:33:43;;;;;;;25.45;16.77;;;3.10;1.00;;;;;;5122569;28;20238;-78
2024/01/09 11:36:16;;;;;;;23.38;15.85;;;2.70;1.00;;;;;;5117040;28;20231;-77
2024/01/09 11:38:43;;;;;;;28.25;16.60;;;2.30;1.00;;;;;;5121276;28;20307;-77
2024/01/09 11:41:10;;;;;;;25.27;16.63;;;2.00;1.00;;;;;;5118993;28;20269;-76
2024/01/09 11:44:10;;;;;;;29.02;18.13;;;2.00;1.00;;;;;;5112750;27;21201;-77
2024/01/09 11:46:39;;;;;;;21.17;14.55;;;2.20;1.00;;;;;;5121839;27;20291;-78
2024/01/09 11:49:09;;;;;;;27.08;15.82;;;2.70;1.00;;;;;;5123017;28;20240;-79
2024/01/09 11:51:37;;;;;;;24.60;17.77;;;2.60;1.00;;;;;;5120602;27;20290;-77
2024/01/09 11:54:08;;;;;;;22.90;16.13;;;2.60;1.00;;;;;;5123151;28;20243;-79
2024/01/09 11:56:35;;;;;;;22.63;16.95;;;2.90;1.00;;;;;;5122179;28;20239;-77
2024/01/09 11:59:02;;;;;;;25.80;18.55;;;2.90;1.00;;;;;;5111170;27;20291;-78
2024/01/09 12:01:30;;;;;;;21.15;16.77;;;2.40;1.00;;;;;;5120680;28;20240;-77
2024/01/09 12:03:58;;;;;;;24.27;17.10;;;2.80;1.00;;;;;;5123809;28;21038;-77
2024/01/09 12:06:31;;;;;;;20.90;16.20;;;3.90;1.00;;;;;;5122916;28;20277;-76
2024/01/09 12:09:01;;;;;;;20.67;17.27;;;5.10;1.00;;;;;;5120387;28;20262;-75
2024/01/09 12:11:28;;;;;;;27.30;16.88;;;6.10;1.00;;;;;;5120797;28;20235;-78
2024/01/09 12:13:59;;;;;;;23.67;18.40;;;6.60;1.00;;;;;;5120983;28;20292;-79
2024/01/09 12:16:29;;;;;;;22.02;17.08;;;6.80;1.00;;;;;;5123278;28;20236;-80
2024/01/09 12:18:56;;;;;;;23.95;16.13;;;6.80;1.00;;;;;;5120890;28;21055;-79
2024/01/09 12:21:36;;;;;;;22.08;15.93;;;6.10;1.00;;;;;;5122521;28;20223;-78
2024/01/09 12:24:06;;;;;;;20.77;16.35;;;5.40;1.00;;;;;;5122395;28;20235;-78
2024/01/09 12:26:34;;;;;;;21.92;16.83;;;5.00;1.00;;;;;;5120238;28;20240;-79
2024/01/09 12:29:03;;;;;;;24.23;15.65;;;5.10;1.00;;;;;;5123402;28;20228;-81
2024/01/09 12:31:33;;;;;;;24.15;15.70;;;4.90;1.00;;;;;;5120306;28;20227;-79
2024/01/09 12:34:00;;;;;;;25.80;15.70;;;4.90;1.00;;;;;;5122432;28;20249;-79
2024/01/09 12:36:31;;;;;;;25.52;16.63;;;5.20;1.00;;;;;;5121691;27;20240;-78
2024/01/09 12:38:59;;;;;;;19.67;15.55;;;5.40;1.00;;;;;;5120238;27;20235;-78
2024/01/09 12:41:26;;;;;;;24.10;14.75;;;5.10;1.00;;;;;;5121503;28;20297;-80
2024/01/09 12:43:53;;;;;;;24.05;16.70;;;5.00;1.00;;;;;;5121389;28;20772;-78
2024/01/09 12:46:21;;;;;;;19.73;15.77;;;5.40;1.00;;;;;;5121145;28;20261;-79
2024/01/09 12:48:48;;;;;;;25.13;15.88;;;5.60;1.00;;;;;;5120433;28;20246;-77